createdAt,value
2018-06-15T00:00:24.330Z,77.39
2018-06-15T00:06:30.210Z,77.40
2018-06-15T00:12:36.248Z,77.39
2018-06-15T00:18:41.960Z,76.84
2018-06-15T00:24:47.688Z,76.80
2018-06-15T00:30:53.779Z,77.92
2018-06-15T00:36:59.460Z,77.69
2018-06-15T00:43:05.300Z,78.73
2018-06-15T00:49:11.462Z,78.83
2018-06-15T00:55:17.161Z,78.68
2018-06-15T01:01:25.595Z,78.15
2018-06-15T01:07:31.730Z,77.68
2018-06-15T01:13:37.579Z,78.86
2018-06-15T01:19:43.468Z,78.68
2018-06-15T01:25:49.334Z,78.88
2018-06-15T01:31:56.490Z,78.66
2018-06-15T01:38:02.145Z,78.40
2018-06-15T01:44:07.945Z,77.96
2018-06-15T01:50:13.631Z,78.03
2018-06-15T01:56:19.534Z,77.93
2018-06-15T02:02:25.598Z,78.40
2018-06-15T02:08:31.381Z,76.82
2018-06-15T02:14:37.080Z,76.58
2018-06-15T02:20:42.807Z,77.45
2018-06-15T02:26:48.422Z,77.93
2018-06-15T02:32:55.048Z,78.39
2018-06-15T02:39:00.784Z,79.19
2018-06-15T02:45:06.539Z,79.23
2018-06-15T02:51:12.191Z,80.28
2018-06-15T02:57:17.938Z,80.59
2018-06-15T03:03:24.599Z,80.09
2018-06-15T03:09:30.257Z,80.78
2018-06-15T03:15:35.993Z,81.63
2018-06-15T03:21:42.151Z,81.72
2018-06-15T03:27:47.838Z,82.10
2018-06-15T03:33:54.246Z,82.79
2018-06-15T03:40:00.247Z,82.52
2018-06-15T03:46:06.149Z,82.59
2018-06-15T03:52:12.066Z,83.20
2018-06-15T03:58:17.871Z,82.89
2018-06-15T04:04:24.215Z,82.73
2018-06-15T04:10:30.398Z,82.92
2018-06-15T04:16:36.096Z,83.22
2018-06-15T04:22:41.812Z,82.29
2018-06-15T04:28:47.492Z,82.87
2018-06-15T04:34:54.899Z,83.07
2018-06-15T04:41:00.708Z,81.77
2018-06-15T04:47:07.294Z,81.86
2018-06-15T04:53:13.250Z,81.67
2018-06-15T04:59:19.894Z,81.94
2018-06-15T05:05:26.387Z,81.70
2018-06-15T05:11:32.255Z,80.62
2018-06-15T05:17:37.999Z,82.00
2018-06-15T05:23:43.838Z,81.64
2018-06-15T05:29:49.951Z,81.37
2018-06-15T05:35:55.818Z,81.27
2018-06-15T05:42:02.021Z,82.26
2018-06-15T05:48:08.270Z,82.20
2018-06-15T05:54:14.071Z,82.34
2018-06-15T06:00:21.563Z,82.57
2018-06-15T06:06:27.404Z,83.30
2018-06-15T06:12:33.085Z,81.92
2018-06-15T06:18:38.895Z,82.23
2018-06-15T06:24:44.607Z,83.09
2018-06-15T06:30:50.456Z,83.19
2018-06-15T06:36:56.502Z,82.98
2018-06-15T06:43:02.248Z,83.90
2018-06-15T06:49:07.956Z,84.46
2018-06-15T06:55:14.278Z,85.66
2018-06-15T07:01:23.396Z,85.55
2018-06-15T07:07:29.220Z,86.12
2018-06-15T07:13:34.837Z,85.12
2018-06-15T07:19:40.616Z,84.06
2018-06-15T07:25:46.400Z,82.83
2018-06-15T07:31:52.820Z,82.34
2018-06-15T07:37:58.591Z,80.79
2018-06-15T07:44:04.280Z,78.33
2018-06-15T07:50:10.022Z,76.29
2018-06-15T07:56:15.840Z,72.50
2018-06-15T08:02:24.131Z,72.66
2018-06-15T08:08:30.321Z,71.83
2018-06-15T08:14:36.012Z,71.13
2018-06-15T08:20:41.818Z,70.88
2018-06-15T08:26:48.370Z,69.41
2018-06-15T08:32:54.722Z,71.99
2018-06-15T08:39:00.455Z,73.10
2018-06-15T08:45:06.363Z,73.78
2018-06-15T08:51:12.101Z,76.28
2018-06-15T08:57:17.932Z,76.86
2018-06-15T09:03:24.510Z,75.84
2018-06-15T09:09:30.249Z,76.43
2018-06-15T09:15:36.219Z,77.20
2018-06-15T09:21:41.960Z,78.01
2018-06-15T09:27:47.640Z,76.75
2018-06-15T09:33:54.341Z,72.72
2018-06-15T09:39:59.999Z,68.68
2018-06-15T09:46:05.815Z,68.99
2018-06-15T09:52:11.590Z,68.79
2018-06-15T09:58:17.288Z,64.57
2018-06-15T10:04:24.188Z,62.84
2018-06-15T10:10:30.379Z,62.74
2018-06-15T10:16:35.995Z,64.30
2018-06-15T10:22:41.601Z,63.49
2018-06-15T10:28:47.296Z,64.91
2018-06-15T10:34:53.776Z,61.59
2018-06-15T10:40:59.492Z,59.76
2018-06-15T10:47:05.247Z,55.57
2018-06-15T10:53:11.135Z,55.87
2018-06-15T10:59:16.846Z,53.68
2018-06-15T11:05:22.836Z,52.10
2018-06-15T11:11:28.479Z,53.09
2018-06-15T11:17:35.087Z,48.70
2018-06-15T11:23:41.042Z,45.46
2018-06-15T11:29:46.810Z,46.26
2018-06-15T11:35:53.011Z,46.29
2018-06-15T11:41:58.684Z,43.45
2018-06-15T11:48:04.672Z,46.63
2018-06-15T11:54:10.296Z,48.70
2018-06-15T12:00:15.985Z,51.26
2018-06-15T12:06:22.244Z,51.41
2018-06-15T12:12:27.927Z,50.81
2018-06-15T12:18:33.837Z,47.96
2018-06-15T12:24:39.463Z,45.17
2018-06-15T12:30:45.110Z,44.08
2018-06-15T12:36:51.301Z,41.94
2018-06-15T12:42:57.615Z,41.04
2018-06-15T12:49:03.502Z,37.09
2018-06-15T12:55:09.158Z,39.92
2018-06-15T13:01:14.985Z,40.69
2018-06-15T13:07:20.932Z,37.97
2018-06-15T13:13:26.944Z,37.61
2018-06-15T13:19:32.858Z,38.84
2018-06-15T13:25:38.848Z,40.06
2018-06-15T13:31:44.620Z,37.55
2018-06-15T13:37:50.935Z,34.23
2018-06-15T13:43:57.036Z,33.21
2018-06-15T13:50:02.724Z,32.88
2018-06-15T13:56:08.447Z,33.01
2018-06-15T14:02:14.451Z,31.08
2018-06-15T14:08:22.604Z,32.23
2018-06-15T14:14:28.976Z,31.96
2018-06-15T14:20:34.691Z,37.27
2018-06-15T14:26:41.320Z,36.18
2018-06-15T14:32:47.039Z,33.95
2018-06-15T14:38:54.772Z,33.73
2018-06-15T14:45:00.550Z,36.89
2018-06-15T14:51:06.275Z,34.63
2018-06-15T14:57:11.891Z,35.63
2018-06-15T15:03:18.125Z,34.69
2018-06-15T15:19:08.806Z,31.46
2018-06-15T15:25:14.705Z,31.78
2018-06-15T15:31:21.495Z,31.09
2018-06-15T15:37:28.206Z,31.03
2018-06-15T15:43:33.850Z,30.66
2018-06-15T15:49:39.503Z,32.32
2018-06-15T15:55:45.156Z,31.71
2018-06-15T16:01:51.753Z,36.61
2018-06-15T16:07:57.645Z,39.87
2018-06-15T16:14:03.296Z,39.17
2018-06-15T16:20:08.987Z,40.65
2018-06-15T16:26:14.604Z,43.72
2018-06-15T16:32:21.337Z,44.03
2018-06-15T16:38:27.095Z,44.08
2018-06-15T16:44:32.719Z,41.75
2018-06-15T16:50:38.445Z,42.98
2018-06-15T16:56:44.273Z,46.38
2018-06-15T17:02:50.301Z,47.18
2018-06-15T17:08:57.010Z,48.99
2018-06-15T17:15:02.705Z,50.09
2018-06-15T17:21:08.570Z,49.83
2018-06-15T17:27:14.654Z,48.26
2018-06-15T17:33:20.712Z,48.85
2018-06-15T17:39:26.904Z,48.98
2018-06-15T17:45:32.533Z,49.36
2018-06-15T17:51:38.674Z,49.81
2018-06-15T17:57:44.440Z,50.75
2018-06-15T18:03:50.153Z,51.24
2018-06-15T18:09:56.110Z,52.41
2018-06-15T18:16:02.162Z,54.10
2018-06-15T18:22:07.880Z,55.88
2018-06-15T18:28:14.050Z,55.11
2018-06-15T18:34:19.848Z,55.36
2018-06-15T18:40:25.633Z,55.30
2018-06-15T18:46:31.371Z,55.95
2018-06-15T18:52:37.396Z,56.51
2018-06-15T18:58:43.047Z,57.33
2018-06-15T19:04:48.709Z,59.22
2018-06-15T19:10:54.584Z,60.33
2018-06-15T19:16:59.946Z,61.16
2018-06-15T19:23:05.496Z,63.12
2018-06-15T19:29:11.166Z,64.07
2018-06-15T19:35:17.041Z,64.64
2018-06-15T19:41:24.118Z,65.24
2018-06-15T19:47:29.891Z,64.77
2018-06-15T19:53:35.670Z,65.91
2018-06-15T19:59:41.368Z,67.22
2018-06-15T20:05:47.117Z,66.91
2018-06-15T20:11:53.255Z,66.42
2018-06-15T20:17:58.998Z,67.21
2018-06-15T20:24:04.633Z,66.80
2018-06-15T20:30:10.672Z,67.79
2018-06-15T20:36:16.838Z,67.18
2018-06-15T20:42:23.591Z,66.79
2018-06-15T20:48:29.291Z,67.30
2018-06-15T20:54:35.130Z,66.69
2018-06-15T21:00:40.858Z,64.86
2018-06-15T21:06:46.632Z,65.79
2018-06-15T21:12:53.573Z,66.79
2018-06-15T21:19:06.276Z,67.30
2018-06-15T21:25:11.881Z,68.26
2018-06-15T21:31:17.511Z,68.77
2018-06-15T21:37:23.913Z,68.57
2018-06-15T21:43:29.836Z,68.12
2018-06-15T21:49:35.626Z,67.37
2018-06-15T21:55:41.238Z,68.79
2018-06-15T22:01:46.976Z,67.35
2018-06-15T22:07:53.110Z,68.15
2018-06-15T22:13:58.860Z,68.73
2018-06-15T22:20:04.645Z,69.32
2018-06-15T22:26:10.408Z,68.91
2018-06-15T22:32:16.166Z,69.46
2018-06-15T22:38:22.670Z,69.73
2018-06-15T22:44:28.666Z,70.25
2018-06-15T22:50:34.570Z,70.53
2018-06-15T22:56:40.320Z,69.88
2018-06-15T23:02:46.551Z,70.92
2018-06-15T23:08:53.963Z,71.16
2018-06-15T23:15:00.076Z,70.36
2018-06-15T23:21:06.190Z,69.83
2018-06-15T23:27:11.888Z,71.15
2018-06-15T23:33:17.824Z,71.07
2018-06-15T23:39:24.495Z,71.79
2018-06-15T23:45:30.177Z,73.15
2018-06-15T23:51:35.909Z,72.98
2018-06-15T23:57:41.769Z,73.98
